createdAt,value
2023-05-14T00:00:46.665Z,100.00
2023-05-14T00:10:22.353Z,100.00
2023-05-14T00:19:54.351Z,100.00
2023-05-14T00:29:30.466Z,100.00
2023-05-14T00:39:02.574Z,100.00
2023-05-14T00:48:36.607Z,100.00
2023-05-14T00:58:10.763Z,100.00
2023-05-14T01:07:46.438Z,100.00
2023-05-14T01:17:18.442Z,100.00
2023-05-14T01:26:52.870Z,100.00
2023-05-14T01:36:26.991Z,100.00
2023-05-14T01:46:00.684Z,100.00
2023-05-14T01:55:37.073Z,100.00
2023-05-14T02:05:10.144Z,100.00
2023-05-14T02:14:41.948Z,100.00
2023-05-14T02:24:17.114Z,100.00
2023-05-14T02:33:50.226Z,100.00
2023-05-14T02:43:25.791Z,100.00
2023-05-14T02:52:57.946Z,100.00
2023-05-14T03:02:33.887Z,100.00
2023-05-14T03:12:05.871Z,100.00
2023-05-14T03:21:39.815Z,100.00
2023-05-14T03:31:13.702Z,100.00
2023-05-14T03:40:47.442Z,100.00
2023-05-14T03:50:22.087Z,100.00
2023-05-14T03:59:57.689Z,100.00
2023-05-14T04:09:30.319Z,100.00
2023-05-14T04:19:04.761Z,100.00
2023-05-14T04:28:39.032Z,100.00
2023-05-14T04:38:14.941Z,100.00
2023-05-14T04:47:49.098Z,100.00
2023-05-14T04:57:23.256Z,100.00
2023-05-14T05:06:56.891Z,100.00
2023-05-14T05:16:29.521Z,100.00
2023-05-14T05:26:03.472Z,100.00
2023-05-14T05:27:05.912Z,100.00
2023-05-14T05:28:10.015Z,100.00
2023-05-14T05:37:42.331Z,100.00
2023-05-14T05:38:44.723Z,100.00
2023-05-14T05:39:47.213Z,100.00
2023-05-14T05:49:20.314Z,100.00
2023-05-14T05:50:24.632Z,100.00
2023-05-14T05:51:28.401Z,100.00
2023-05-14T05:52:30.743Z,100.00
2023-05-14T05:53:34.734Z,100.00
2023-05-14T05:54:38.667Z,100.00
2023-05-14T06:04:10.158Z,100.00
2023-05-14T06:05:12.717Z,100.00
2023-05-14T06:06:16.943Z,100.00
2023-05-14T06:07:19.281Z,100.00
2023-05-14T06:08:21.821Z,100.00
2023-05-14T06:17:56.922Z,100.00
2023-05-14T06:19:00.827Z,100.00
2023-05-14T06:20:03.079Z,100.00
2023-05-14T06:21:07.127Z,99.67
2023-05-14T06:22:11.117Z,97.05
2023-05-14T06:23:13.407Z,95.53
2023-05-14T06:24:15.816Z,95.87
2023-05-14T06:25:18.329Z,96.61
2023-05-14T06:26:20.743Z,95.13
2023-05-14T06:27:23.170Z,95.17
2023-05-14T06:28:27.278Z,94.48
2023-05-14T06:29:29.645Z,95.24
2023-05-14T06:30:33.665Z,94.40
2023-05-14T06:31:36.059Z,93.91
2023-05-14T06:32:38.521Z,93.05
2023-05-14T06:33:42.482Z,93.52
2023-05-14T06:34:44.770Z,93.11
2023-05-14T06:35:47.217Z,93.41
2023-05-14T06:36:49.640Z,93.44
2023-05-14T06:37:53.653Z,93.29
2023-05-14T06:38:55.968Z,93.78
2023-05-14T06:39:58.444Z,93.35
2023-05-14T06:49:32.569Z,94.22
2023-05-14T06:50:34.891Z,93.86
2023-05-14T06:51:37.400Z,94.26
2023-05-14T06:52:40.890Z,94.82
2023-05-14T06:53:43.273Z,93.48
2023-05-14T06:54:45.649Z,93.54
2023-05-14T06:55:49.736Z,91.61
2023-05-14T06:56:52.098Z,91.34
2023-05-14T06:57:54.560Z,92.43
2023-05-14T06:58:56.983Z,92.74
2023-05-14T06:59:59.421Z,89.81
2023-05-14T07:01:01.914Z,88.99
2023-05-14T07:02:04.356Z,87.97
2023-05-14T07:03:08.497Z,88.79
2023-05-14T07:04:10.778Z,87.68
2023-05-14T07:05:13.247Z,88.83
2023-05-14T07:06:15.632Z,89.41
2023-05-14T07:07:19.769Z,87.79
2023-05-14T07:08:23.632Z,86.02
2023-05-14T07:09:25.936Z,85.64
2023-05-14T07:10:28.454Z,85.85
2023-05-14T07:11:32.451Z,85.19
2023-05-14T07:12:36.341Z,86.15
2023-05-14T07:13:38.706Z,86.18
2023-05-14T07:14:41.153Z,86.96
2023-05-14T07:15:43.607Z,85.58
2023-05-14T07:16:47.601Z,85.05
2023-05-14T07:17:49.979Z,85.12
2023-05-14T07:18:52.431Z,84.52
2023-05-14T07:19:56.601Z,85.66
2023-05-14T07:20:58.944Z,85.77
2023-05-14T07:22:03.003Z,86.21
2023-05-14T07:23:05.355Z,86.60
2023-05-14T07:24:09.361Z,86.19
2023-05-14T07:25:13.270Z,83.85
2023-05-14T07:26:15.549Z,83.63
2023-05-14T07:27:19.618Z,84.14
2023-05-14T07:28:21.930Z,85.29
2023-05-14T07:29:24.407Z,82.25
2023-05-14T07:30:26.985Z,81.81
2023-05-14T07:31:29.426Z,82.92
2023-05-14T07:32:33.440Z,82.75
2023-05-14T07:33:35.747Z,81.63
2023-05-14T07:34:39.820Z,82.03
2023-05-14T07:35:42.117Z,80.29
2023-05-14T07:36:44.555Z,79.10
2023-05-14T07:37:48.626Z,81.57
2023-05-14T07:38:50.997Z,82.66
2023-05-14T07:39:55.069Z,82.10
2023-05-14T07:40:57.390Z,81.79
2023-05-14T07:42:01.398Z,82.46
2023-05-14T07:43:03.811Z,82.74
2023-05-14T07:44:06.282Z,83.28
2023-05-14T07:45:10.399Z,78.88
2023-05-14T07:46:12.738Z,78.80
2023-05-14T07:47:15.135Z,77.89
2023-05-14T07:48:17.590Z,79.12
2023-05-14T07:49:21.696Z,79.43
2023-05-14T07:50:24.105Z,77.54
2023-05-14T07:51:26.440Z,77.01
2023-05-14T07:52:28.942Z,77.87
2023-05-14T07:53:33.048Z,79.52
2023-05-14T07:54:35.350Z,78.31
2023-05-14T07:55:39.432Z,76.29
2023-05-14T07:56:43.315Z,78.03
2023-05-14T07:57:47.204Z,76.94
2023-05-14T07:58:49.577Z,78.92
2023-05-14T07:59:52.027Z,77.09
2023-05-14T08:00:54.489Z,76.91
2023-05-14T08:01:58.544Z,77.72
2023-05-14T08:03:01.023Z,78.58
2023-05-14T08:04:03.572Z,77.39
2023-05-14T08:05:07.413Z,78.15
2023-05-14T08:06:11.357Z,78.75
2023-05-14T08:07:13.657Z,78.74
2023-05-14T08:08:17.758Z,79.78
2023-05-14T08:09:20.035Z,79.15
2023-05-14T08:10:22.856Z,78.83
2023-05-14T08:11:26.541Z,78.80
2023-05-14T08:12:30.358Z,77.42
2023-05-14T08:13:32.721Z,77.88
2023-05-14T08:14:36.822Z,77.58
2023-05-14T08:15:39.086Z,74.68
2023-05-14T08:16:43.187Z,75.32
2023-05-14T08:17:45.606Z,74.94
2023-05-14T08:18:49.490Z,76.44
2023-05-14T08:19:51.768Z,76.63
2023-05-14T08:20:54.236Z,76.62
2023-05-14T08:21:58.249Z,77.17
2023-05-14T08:23:02.177Z,77.65
2023-05-14T08:24:06.108Z,76.20
2023-05-14T08:25:08.405Z,74.57
2023-05-14T08:26:12.436Z,73.51
2023-05-14T08:27:14.734Z,72.54
2023-05-14T08:28:18.998Z,72.95
2023-05-14T08:29:21.342Z,73.05
2023-05-14T08:30:24.051Z,72.83
2023-05-14T08:31:26.388Z,73.69
2023-05-14T08:32:28.666Z,75.61
2023-05-14T08:33:31.048Z,75.66
2023-05-14T08:34:35.169Z,72.04
2023-05-14T08:35:39.065Z,71.89
2023-05-14T08:36:41.456Z,73.47
2023-05-14T08:37:43.858Z,73.50
2023-05-14T08:38:47.917Z,74.25
2023-05-14T08:39:50.253Z,73.70
2023-05-14T08:40:54.286Z,73.79
2023-05-14T08:41:58.211Z,72.31
2023-05-14T08:43:02.184Z,70.21
2023-05-14T08:44:06.168Z,71.24
2023-05-14T08:45:08.490Z,73.02
2023-05-14T08:46:10.928Z,70.66
2023-05-14T08:47:13.343Z,70.25
2023-05-14T08:48:15.914Z,69.18
2023-05-14T08:49:18.268Z,70.76
2023-05-14T08:50:23.465Z,73.23
2023-05-14T08:51:24.827Z,71.97
2023-05-14T08:52:27.202Z,72.26
2023-05-14T08:53:35.312Z,71.27
2023-05-14T09:03:04.508Z,74.50
2023-05-14T09:04:06.953Z,75.00
2023-05-14T09:05:10.920Z,72.98
2023-05-14T09:06:14.994Z,70.78
2023-05-14T09:07:17.463Z,71.64
2023-05-14T09:08:19.922Z,71.29
2023-05-14T09:09:22.412Z,70.69
2023-05-14T09:10:26.845Z,70.70
2023-05-14T09:11:30.468Z,68.37
2023-05-14T09:12:32.733Z,68.25
2023-05-14T09:13:35.203Z,68.15
2023-05-14T09:14:37.634Z,68.84
2023-05-14T09:15:40.076Z,68.01
2023-05-14T09:16:42.708Z,68.36
2023-05-14T09:17:46.604Z,65.81
2023-05-14T09:18:50.561Z,66.99
2023-05-14T09:19:53.090Z,66.69
2023-05-14T09:20:57.001Z,66.49
2023-05-14T09:22:00.881Z,66.76
2023-05-14T09:23:04.873Z,68.17
2023-05-14T09:24:08.835Z,69.23
2023-05-14T09:25:11.148Z,67.72
2023-05-14T09:26:15.236Z,69.38
2023-05-14T09:27:17.588Z,67.07
2023-05-14T09:28:21.645Z,68.35
2023-05-14T09:29:23.992Z,68.78
2023-05-14T09:30:26.580Z,68.00
2023-05-14T09:31:29.043Z,68.96
2023-05-14T09:32:33.040Z,68.53
2023-05-14T09:33:35.358Z,67.06
2023-05-14T09:34:37.825Z,66.10
2023-05-14T09:35:40.283Z,67.56
2023-05-14T09:36:42.732Z,65.59
2023-05-14T09:37:45.112Z,64.74
2023-05-14T09:38:47.564Z,65.28
2023-05-14T09:39:50.076Z,65.57
2023-05-14T09:40:52.557Z,65.07
2023-05-14T09:41:56.619Z,62.09
2023-05-14T09:42:58.925Z,65.04
2023-05-14T09:44:01.360Z,67.42
2023-05-14T09:45:05.442Z,64.00
2023-05-14T09:46:09.425Z,66.02
2023-05-14T09:47:13.340Z,66.35
2023-05-14T09:48:17.271Z,65.35
2023-05-14T09:49:21.195Z,62.50
2023-05-14T09:50:25.279Z,62.78
2023-05-14T09:51:27.384Z,65.74
2023-05-14T09:52:31.491Z,65.96
2023-05-14T09:53:35.401Z,67.16
2023-05-14T09:54:37.755Z,67.78
2023-05-14T09:55:40.246Z,66.36
2023-05-14T09:56:42.637Z,66.25
2023-05-14T09:57:46.741Z,65.00
2023-05-14T09:58:49.102Z,62.71
2023-05-14T09:59:51.565Z,65.71
2023-05-14T10:00:54.123Z,62.25
2023-05-14T10:01:56.539Z,60.17
2023-05-14T10:02:59.042Z,60.41
2023-05-14T10:04:01.374Z,62.65
2023-05-14T10:05:03.897Z,63.13
2023-05-14T10:06:06.314Z,62.88
2023-05-14T10:07:08.831Z,64.20
2023-05-14T10:08:11.256Z,65.60
2023-05-14T10:09:13.811Z,62.67
2023-05-14T10:10:16.179Z,65.96
2023-05-14T10:11:18.605Z,65.98
2023-05-14T10:12:21.033Z,62.66
2023-05-14T10:13:23.547Z,60.54
2023-05-14T10:14:27.574Z,61.44
2023-05-14T10:15:31.508Z,62.04
2023-05-14T10:16:35.462Z,62.10
2023-05-14T10:17:39.428Z,61.13
2023-05-14T10:18:41.700Z,60.88
2023-05-14T10:19:44.156Z,62.57
2023-05-14T10:20:51.564Z,62.68
2023-05-14T10:21:55.334Z,60.85
2023-05-14T10:22:57.594Z,61.79
2023-05-14T10:23:59.995Z,61.75
2023-05-14T10:25:02.539Z,60.72
2023-05-14T10:26:06.613Z,57.69
2023-05-14T10:27:10.571Z,58.89
2023-05-14T10:28:14.496Z,57.72
2023-05-14T10:29:16.831Z,59.80
2023-05-14T10:30:19.358Z,60.90
2023-05-14T10:31:21.750Z,60.46
2023-05-14T10:32:24.256Z,59.87
2023-05-14T10:33:28.254Z,58.85
2023-05-14T10:34:32.268Z,58.64
2023-05-14T10:35:34.525Z,57.74
2023-05-14T10:36:36.871Z,59.91
2023-05-14T10:37:39.390Z,56.92
2023-05-14T10:38:41.787Z,57.09
2023-05-14T10:39:45.841Z,58.29
2023-05-14T10:40:51.092Z,56.96
2023-05-14T10:41:52.021Z,56.03
2023-05-14T10:42:56.020Z,56.60
2023-05-14T10:43:58.402Z,56.90
2023-05-14T10:45:00.837Z,56.61
2023-05-14T10:46:03.372Z,55.26
2023-05-14T10:47:05.899Z,55.84
2023-05-14T10:48:08.130Z,57.48
2023-05-14T10:49:12.176Z,58.11
2023-05-14T10:50:14.524Z,58.20
2023-05-14T10:51:17.034Z,57.16
2023-05-14T10:52:21.046Z,57.71
2023-05-14T10:53:23.396Z,60.12
2023-05-14T10:54:27.452Z,60.86
2023-05-14T10:55:29.728Z,57.19
2023-05-14T10:56:32.190Z,60.07
2023-05-14T10:57:36.267Z,56.94
2023-05-14T10:58:39.005Z,57.17
2023-05-14T10:59:42.994Z,55.38
2023-05-14T11:00:46.894Z,55.95
2023-05-14T11:01:49.181Z,54.98
2023-05-14T11:02:51.617Z,54.41
2023-05-14T11:03:55.675Z,55.84
2023-05-14T11:04:57.961Z,53.94
2023-05-14T11:06:00.443Z,54.47
2023-05-14T11:07:02.908Z,56.64
2023-05-14T11:08:06.956Z,56.92
2023-05-14T11:09:09.322Z,54.80
2023-05-14T11:10:11.828Z,55.18
2023-05-14T11:11:14.177Z,56.16
2023-05-14T11:12:16.622Z,55.99
2023-05-14T11:13:20.906Z,56.44
2023-05-14T11:14:23.280Z,59.20
2023-05-14T11:15:25.718Z,56.81
2023-05-14T11:16:28.236Z,56.26
2023-05-14T11:17:30.651Z,56.93
2023-05-14T11:18:34.736Z,57.59
2023-05-14T11:19:37.122Z,57.91
2023-05-14T11:20:41.147Z,56.66
2023-05-14T11:21:45.098Z,56.90
2023-05-14T11:22:49.000Z,56.62
2023-05-14T11:23:53.034Z,58.71
2023-05-14T11:24:56.918Z,58.73
2023-05-14T11:25:59.222Z,56.30
2023-05-14T11:27:01.704Z,58.78
2023-05-14T11:28:04.113Z,59.96
2023-05-14T11:29:08.177Z,59.13
2023-05-14T11:30:10.495Z,56.98
2023-05-14T11:31:13.039Z,55.71
2023-05-14T11:32:17.077Z,55.90
2023-05-14T11:33:19.387Z,56.06
2023-05-14T11:34:24.417Z,57.37
2023-05-14T11:35:26.736Z,57.19
2023-05-14T11:36:29.255Z,58.40
2023-05-14T11:37:33.262Z,55.83
2023-05-14T11:38:35.613Z,55.32
2023-05-14T11:39:38.060Z,58.34
2023-05-14T11:40:42.121Z,56.88
2023-05-14T11:41:44.486Z,58.32
2023-05-14T11:42:46.961Z,60.16
2023-05-14T11:43:49.442Z,58.93
2023-05-14T11:44:52.075Z,58.00
2023-05-14T11:45:56.003Z,58.06
2023-05-14T11:46:58.330Z,59.92
2023-05-14T11:48:00.914Z,58.77
2023-05-14T11:49:04.865Z,54.32
2023-05-14T11:50:08.659Z,53.21
2023-05-14T11:51:09.662Z,56.70
2023-05-14T11:52:12.097Z,53.33
2023-05-14T11:53:14.574Z,53.09
2023-05-14T11:54:17.116Z,54.44
2023-05-14T11:55:19.569Z,52.62
2023-05-14T11:56:22.059Z,56.88
2023-05-14T11:57:26.138Z,51.04
2023-05-14T11:58:30.044Z,51.15
2023-05-14T11:59:32.336Z,53.00
2023-05-14T12:00:37.412Z,52.48
2023-05-14T12:01:39.741Z,51.58
2023-05-14T12:02:43.961Z,49.90
2023-05-14T12:03:46.246Z,52.62
2023-05-14T12:04:48.678Z,54.17
2023-05-14T12:05:52.654Z,51.58
2023-05-14T12:06:54.990Z,51.02
2023-05-14T12:07:59.067Z,56.26
2023-05-14T12:09:01.347Z,51.17
2023-05-14T12:10:05.519Z,53.39
2023-05-14T12:11:07.789Z,49.38
2023-05-14T12:12:10.366Z,53.60
2023-05-14T12:13:12.732Z,52.67
2023-05-14T12:14:16.147Z,48.94
2023-05-14T12:15:18.501Z,50.25
2023-05-14T12:16:22.019Z,49.39
2023-05-14T12:17:24.360Z,50.05
2023-05-14T12:18:26.836Z,52.66
2023-05-14T12:19:29.352Z,50.57
2023-05-14T12:20:31.844Z,49.61
2023-05-14T12:21:34.333Z,49.43
2023-05-14T12:22:38.401Z,50.90
2023-05-14T12:23:40.761Z,53.57
2023-05-14T12:24:44.863Z,48.27
2023-05-14T12:25:47.091Z,49.66
2023-05-14T12:26:49.569Z,50.47
2023-05-14T12:27:52.066Z,50.60
2023-05-14T12:28:56.101Z,50.80
2023-05-14T12:30:01.932Z,48.92
2023-05-14T12:31:02.600Z,48.63
2023-05-14T12:32:04.826Z,48.82
2023-05-14T12:33:07.307Z,49.45
2023-05-14T12:34:09.739Z,49.35
2023-05-14T12:35:13.865Z,50.63
2023-05-14T12:36:21.587Z,52.53
2023-05-14T12:37:18.539Z,49.72
2023-05-14T12:38:22.669Z,47.93
2023-05-14T12:39:26.590Z,47.94
2023-05-14T12:40:29.337Z,51.83
2023-05-14T12:41:34.435Z,51.39
2023-05-14T12:42:38.316Z,51.77
2023-05-14T12:43:42.216Z,47.86
2023-05-14T12:44:44.556Z,47.18
2023-05-14T12:45:47.022Z,46.63
2023-05-14T12:46:51.099Z,46.76
2023-05-14T12:47:55.003Z,49.97
2023-05-14T12:48:57.366Z,50.24
2023-05-14T12:50:02.492Z,49.09
2023-05-14T12:51:04.736Z,47.19
2023-05-14T12:52:22.647Z,48.85
2023-05-14T12:53:10.663Z,48.35
2023-05-14T12:54:14.650Z,49.05
2023-05-14T12:55:18.600Z,46.24
2023-05-14T12:56:21.972Z,45.45
2023-05-14T12:57:24.380Z,45.33
2023-05-14T12:58:28.578Z,45.43
2023-05-14T12:59:30.833Z,47.18
2023-05-14T13:00:33.273Z,44.32
2023-05-14T13:01:35.778Z,48.32
2023-05-14T13:02:42.420Z,49.46
2023-05-14T13:03:42.617Z,48.92
2023-05-14T13:04:46.645Z,46.29
2023-05-14T13:05:49.017Z,46.23
2023-05-14T13:06:51.505Z,45.13
2023-05-14T13:07:55.614Z,47.13
2023-05-14T13:08:59.547Z,45.69
2023-05-14T13:10:01.944Z,41.60
2023-05-14T13:11:06.079Z,44.37
2023-05-14T13:12:10.033Z,45.21
2023-05-14T13:13:13.969Z,45.05
2023-05-14T13:14:17.025Z,43.48
2023-05-14T13:15:20.500Z,46.33
2023-05-14T13:16:22.742Z,45.11
2023-05-14T13:17:25.198Z,40.61
2023-05-14T13:18:27.731Z,42.86
2023-05-14T13:19:30.168Z,42.49
2023-05-14T13:20:32.592Z,42.88
2023-05-14T13:21:36.699Z,45.96
2023-05-14T13:22:39.034Z,44.70
2023-05-14T13:23:41.518Z,46.98
2023-05-14T13:24:45.614Z,43.46
2023-05-14T13:25:49.792Z,44.11
2023-05-14T13:26:52.093Z,45.15
2023-05-14T13:27:54.483Z,40.98
2023-05-14T13:28:56.906Z,43.82
2023-05-14T13:30:00.410Z,46.39
2023-05-14T13:31:02.836Z,47.42
2023-05-14T13:32:05.340Z,40.47
2023-05-14T13:33:07.816Z,40.50
2023-05-14T13:34:11.893Z,41.89
2023-05-14T13:35:14.338Z,39.89
2023-05-14T13:36:16.752Z,41.48
2023-05-14T13:37:20.780Z,44.87
2023-05-14T13:38:24.961Z,46.83
2023-05-14T13:39:27.398Z,44.79
2023-05-14T13:40:31.292Z,43.64
2023-05-14T13:41:33.592Z,42.17
2023-05-14T13:42:37.622Z,43.23
2023-05-14T13:43:39.973Z,46.80
2023-05-14T13:44:44.052Z,46.80
2023-05-14T13:45:46.334Z,46.23
2023-05-14T13:46:48.819Z,46.13
2023-05-14T13:47:51.667Z,46.38
2023-05-14T13:48:53.729Z,44.72
2023-05-14T13:49:57.835Z,46.27
2023-05-14T13:51:00.275Z,45.45
2023-05-14T13:52:04.379Z,46.16
2023-05-14T13:53:06.641Z,43.19
2023-05-14T13:54:10.901Z,41.26
2023-05-14T13:55:13.331Z,48.10
2023-05-14T13:56:15.721Z,46.63
2023-05-14T13:57:18.191Z,46.27
2023-05-14T13:58:20.681Z,46.54
2023-05-14T13:59:24.781Z,45.79
2023-05-14T14:00:28.880Z,42.43
2023-05-14T14:01:31.545Z,42.73
2023-05-14T14:02:34.251Z,44.18
2023-05-14T14:03:38.303Z,43.04
2023-05-14T14:04:43.136Z,42.88
2023-05-14T14:05:45.488Z,45.01
2023-05-14T14:06:49.501Z,41.28
2023-05-14T14:07:57.478Z,45.18
2023-05-14T14:08:58.164Z,40.72
2023-05-14T14:10:00.684Z,45.51
2023-05-14T14:11:05.036Z,44.63
2023-05-14T14:12:08.906Z,37.28
2023-05-14T14:13:11.158Z,38.54
2023-05-14T14:14:14.564Z,40.89
2023-05-14T14:15:16.989Z,41.88
2023-05-14T14:16:21.096Z,43.85
2023-05-14T14:17:23.427Z,39.41
2023-05-14T14:18:27.545Z,41.44
2023-05-14T14:19:29.849Z,37.82
2023-05-14T14:20:32.293Z,39.17
2023-05-14T14:21:34.730Z,40.08
2023-05-14T14:22:38.863Z,38.94
2023-05-14T14:23:41.132Z,40.60
2023-05-14T14:24:43.598Z,44.36
2023-05-14T14:25:46.014Z,45.50
2023-05-14T14:26:48.518Z,41.69
2023-05-14T14:27:52.580Z,39.91
2023-05-14T14:28:54.881Z,42.43
2023-05-14T14:29:57.362Z,41.12
2023-05-14T14:30:59.821Z,42.58
2023-05-14T14:32:03.890Z,44.60
2023-05-14T14:33:07.313Z,46.75
2023-05-14T14:34:09.579Z,45.01
2023-05-14T14:35:13.037Z,42.73
2023-05-14T14:36:16.968Z,44.38
2023-05-14T14:37:21.159Z,46.22
2023-05-14T14:38:23.347Z,46.55
2023-05-14T14:39:25.632Z,45.54
2023-05-14T14:40:28.094Z,44.32
2023-05-14T14:41:30.628Z,47.25
2023-05-14T14:42:33.118Z,48.01
2023-05-14T14:43:37.237Z,44.70
2023-05-14T14:44:41.224Z,47.35
2023-05-14T14:45:43.581Z,50.89
2023-05-14T14:46:46.100Z,42.34
2023-05-14T14:47:48.653Z,43.03
2023-05-14T14:48:51.096Z,40.95
2023-05-14T14:49:53.622Z,42.45
2023-05-14T14:50:56.040Z,41.01
2023-05-14T14:52:01.204Z,40.80
2023-05-14T14:53:03.457Z,43.71
2023-05-14T14:54:05.951Z,44.89
2023-05-14T14:55:10.031Z,42.13
2023-05-14T14:56:12.407Z,44.79
2023-05-14T14:57:16.545Z,44.51
2023-05-14T14:58:20.590Z,45.14
2023-05-14T14:59:25.591Z,46.59
2023-05-14T15:00:29.668Z,43.80
2023-05-14T15:01:32.061Z,42.74
2023-05-14T15:02:36.074Z,42.08
2023-05-14T15:03:38.719Z,45.02
2023-05-14T15:04:42.603Z,41.35
2023-05-14T15:05:46.683Z,39.64
2023-05-14T15:06:49.032Z,41.87
2023-05-14T15:07:51.555Z,38.04
2023-05-14T15:08:55.670Z,37.36
2023-05-14T15:09:58.074Z,37.25
2023-05-14T15:11:00.554Z,39.88
2023-05-14T15:12:03.086Z,38.33
2023-05-14T15:13:08.164Z,40.95
2023-05-14T15:14:11.487Z,41.33
2023-05-14T15:15:16.376Z,37.46
2023-05-14T15:16:20.298Z,41.35
2023-05-14T15:17:22.635Z,38.21
2023-05-14T15:18:25.116Z,35.74
2023-05-14T15:19:29.178Z,38.98
2023-05-14T15:20:31.694Z,42.86
2023-05-14T15:21:34.168Z,39.26
2023-05-14T15:22:38.255Z,42.06
2023-05-14T15:23:40.622Z,39.01
2023-05-14T15:24:44.159Z,38.23
2023-05-14T15:25:46.580Z,34.92
2023-05-14T15:26:48.996Z,37.61
2023-05-14T15:27:52.543Z,37.79
2023-05-14T15:28:54.979Z,38.59
2023-05-14T15:29:57.450Z,39.65
2023-05-14T15:31:02.516Z,38.98
2023-05-14T15:32:05.827Z,40.51
2023-05-14T15:33:09.278Z,39.42
2023-05-14T15:34:11.609Z,36.80
2023-05-14T15:35:14.131Z,38.47
2023-05-14T15:36:17.583Z,39.92
2023-05-14T15:37:22.701Z,44.62
2023-05-14T15:38:24.968Z,37.34
2023-05-14T15:39:30.160Z,36.21
2023-05-14T15:40:32.387Z,36.71
2023-05-14T15:41:34.772Z,37.67
2023-05-14T15:42:38.902Z,40.23
2023-05-14T15:43:41.252Z,39.36
2023-05-14T15:44:43.647Z,40.10
2023-05-14T15:45:46.164Z,38.25
2023-05-14T15:46:50.336Z,38.98
2023-05-14T15:47:54.265Z,39.28
2023-05-14T15:48:56.611Z,38.76
2023-05-14T15:49:59.100Z,39.69
2023-05-14T15:51:01.661Z,40.61
2023-05-14T15:52:05.138Z,36.46
2023-05-14T15:53:08.527Z,38.67
2023-05-14T15:54:12.520Z,39.97
2023-05-14T15:55:14.928Z,34.77
2023-05-14T15:56:17.432Z,37.88
2023-05-14T15:57:20.141Z,36.61
2023-05-14T15:58:22.382Z,36.12
2023-05-14T15:59:24.866Z,37.13
2023-05-14T16:00:27.507Z,37.25
2023-05-14T16:01:32.493Z,39.36
2023-05-14T16:02:36.463Z,36.03
2023-05-14T16:03:39.761Z,36.50
2023-05-14T16:04:43.109Z,36.52
2023-05-14T16:05:47.088Z,36.72
2023-05-14T16:06:49.470Z,37.04
2023-05-14T16:07:51.962Z,33.29
2023-05-14T16:08:54.311Z,34.19
2023-05-14T16:09:56.749Z,36.14
2023-05-14T16:11:00.801Z,35.56
2023-05-14T16:12:03.178Z,35.92
2023-05-14T16:13:07.200Z,37.34
2023-05-14T16:14:11.090Z,38.02
2023-05-14T16:15:13.413Z,38.59
2023-05-14T16:16:18.598Z,39.96
2023-05-14T16:17:20.799Z,41.27
2023-05-14T16:18:23.258Z,43.39
2023-05-14T16:19:28.265Z,42.40
2023-05-14T16:20:30.821Z,44.17
2023-05-14T16:21:34.745Z,43.30
2023-05-14T16:22:37.051Z,44.32
2023-05-14T16:23:39.537Z,44.68
2023-05-14T16:24:43.601Z,44.42
2023-05-14T16:25:45.968Z,45.42
2023-05-14T16:26:48.426Z,44.73
2023-05-14T16:27:50.893Z,44.55
2023-05-14T16:28:54.986Z,44.20
2023-05-14T16:29:59.049Z,46.06
2023-05-14T16:31:03.550Z,45.10
2023-05-14T16:32:05.475Z,44.45
2023-05-14T16:33:09.391Z,45.55
2023-05-14T16:34:11.777Z,44.69
2023-05-14T16:35:14.270Z,42.99
2023-05-14T16:36:18.308Z,41.05
2023-05-14T16:37:20.690Z,42.13
2023-05-14T16:38:23.176Z,41.07
2023-05-14T16:39:28.350Z,42.28
2023-05-14T16:40:30.677Z,41.54
2023-05-14T16:41:34.707Z,40.84
2023-05-14T16:42:38.858Z,40.84
2023-05-14T16:43:41.244Z,42.56
2023-05-14T16:44:45.315Z,40.43
2023-05-14T16:45:48.691Z,39.70
2023-05-14T16:46:51.048Z,40.28
2023-05-14T16:47:53.606Z,39.58
2023-05-14T16:48:57.612Z,38.86
2023-05-14T16:49:59.992Z,38.81
2023-05-14T16:51:02.499Z,41.18
2023-05-14T16:52:04.926Z,39.73
2023-05-14T16:53:07.444Z,39.13
2023-05-14T16:54:09.990Z,38.99
2023-05-14T16:55:12.413Z,38.33
2023-05-14T16:56:14.863Z,39.13
2023-05-14T16:57:18.363Z,38.70
2023-05-14T16:58:20.722Z,39.70
2023-05-14T16:59:24.198Z,40.51
2023-05-14T17:00:26.593Z,40.69
2023-05-14T17:01:30.079Z,41.46
2023-05-14T17:02:34.018Z,41.97
2023-05-14T17:03:38.021Z,41.98
2023-05-14T17:04:42.191Z,42.28
2023-05-14T17:05:45.272Z,40.03
2023-05-14T17:06:49.271Z,40.49
2023-05-14T17:07:52.538Z,40.34
2023-05-14T17:08:54.957Z,40.67
2023-05-14T17:09:57.416Z,40.66
2023-05-14T17:10:59.901Z,41.49
2023-05-14T17:12:03.883Z,41.95
2023-05-14T17:13:07.814Z,42.58
2023-05-14T17:14:10.107Z,43.26
2023-05-14T17:15:12.582Z,43.59
2023-05-14T17:16:15.032Z,43.62
2023-05-14T17:17:18.457Z,43.60
2023-05-14T17:18:20.816Z,43.48
2023-05-14T17:19:24.914Z,43.25
2023-05-14T17:20:28.190Z,42.85
2023-05-14T17:21:32.146Z,44.82
2023-05-14T17:22:34.469Z,46.13
2023-05-14T17:23:38.457Z,44.38
2023-05-14T17:24:42.375Z,45.22
2023-05-14T17:25:44.632Z,45.84
2023-05-14T17:26:47.158Z,47.21
2023-05-14T17:27:49.707Z,47.57
2023-05-14T17:28:53.681Z,47.51
2023-05-14T17:29:55.964Z,44.63
2023-05-14T17:30:59.415Z,45.42
2023-05-14T17:32:01.721Z,47.90
2023-05-14T17:33:04.100Z,46.95
2023-05-14T17:34:08.157Z,47.80
2023-05-14T17:35:10.437Z,48.39
2023-05-14T17:36:15.366Z,49.24
2023-05-14T17:37:17.596Z,48.82
2023-05-14T17:38:20.059Z,50.25
2023-05-14T17:39:22.538Z,51.30
2023-05-14T17:40:26.582Z,51.29
2023-05-14T17:41:30.484Z,50.22
2023-05-14T17:42:35.383Z,50.81
2023-05-14T17:43:37.611Z,50.05
2023-05-14T17:44:40.062Z,51.23
2023-05-14T17:45:53.692Z,51.90
2023-05-14T17:46:46.011Z,51.26
2023-05-14T17:47:48.257Z,50.69
2023-05-14T17:48:51.658Z,50.76
2023-05-14T17:49:56.920Z,51.08
2023-05-14T17:50:59.134Z,50.61
2023-05-14T17:52:04.201Z,52.43
2023-05-14T17:53:06.461Z,51.19
2023-05-14T17:54:09.856Z,52.43
2023-05-14T17:55:12.433Z,52.22
2023-05-14T17:56:14.851Z,51.72
2023-05-14T17:57:17.263Z,52.55
2023-05-14T17:58:21.318Z,53.90
2023-05-14T17:59:25.285Z,53.48
2023-05-14T18:00:29.286Z,53.81
2023-05-14T18:01:33.275Z,53.38
2023-05-14T18:02:35.491Z,52.25
2023-05-14T18:03:37.976Z,52.81
2023-05-14T18:04:40.367Z,52.44
2023-05-14T18:05:42.730Z,53.47
2023-05-14T18:06:45.192Z,53.51
2023-05-14T18:07:49.284Z,54.93
2023-05-14T18:08:53.232Z,54.42
2023-05-14T18:09:55.645Z,54.79
2023-05-14T18:10:59.644Z,55.15
2023-05-14T18:12:03.644Z,54.21
2023-05-14T18:13:05.983Z,54.23
2023-05-14T18:14:08.478Z,53.96
2023-05-14T18:15:12.482Z,54.24
2023-05-14T18:16:14.864Z,56.49
2023-05-14T18:17:17.294Z,54.90
2023-05-14T18:18:19.858Z,54.89
2023-05-14T18:19:23.780Z,56.33
2023-05-14T18:20:27.728Z,56.18
2023-05-14T18:21:30.067Z,56.09
2023-05-14T18:22:32.472Z,56.32
2023-05-14T18:23:36.574Z,56.17
2023-05-14T18:33:06.502Z,60.20
2023-05-14T18:34:09.881Z,60.96
2023-05-14T18:35:12.265Z,61.32
2023-05-14T18:36:14.753Z,61.78
2023-05-14T18:37:17.211Z,63.04
2023-05-14T18:38:21.271Z,62.75
2023-05-14T18:39:23.567Z,61.78
2023-05-14T18:48:56.667Z,64.35
2023-05-14T18:50:00.655Z,64.74
2023-05-14T18:59:32.521Z,66.52
2023-05-14T19:09:04.494Z,66.13
2023-05-14T19:18:38.446Z,67.26
2023-05-14T19:28:13.938Z,68.29
2023-05-14T19:37:47.568Z,68.64
2023-05-14T19:38:51.492Z,68.66
2023-05-14T19:48:25.312Z,69.28
2023-05-14T19:57:57.827Z,70.65
2023-05-14T20:07:32.960Z,73.91
2023-05-14T20:08:36.266Z,73.71
2023-05-14T20:18:08.074Z,74.76
2023-05-14T20:27:42.481Z,75.48
2023-05-14T20:28:44.838Z,75.57
2023-05-14T20:38:19.495Z,76.94
2023-05-14T20:47:51.368Z,78.14
2023-05-14T20:57:26.237Z,77.37
2023-05-14T21:07:00.163Z,79.03
2023-05-14T21:16:33.828Z,81.21
2023-05-14T21:26:07.537Z,81.45
2023-05-14T21:35:39.481Z,82.39
2023-05-14T21:45:13.063Z,84.26
2023-05-14T21:54:44.767Z,85.82
2023-05-14T22:04:18.347Z,87.03
2023-05-14T22:13:54.199Z,87.43
2023-05-14T22:23:25.513Z,88.00
2023-05-14T22:32:58.428Z,88.98
2023-05-14T22:42:33.663Z,89.72
2023-05-14T22:52:06.632Z,89.94
2023-05-14T23:01:40.963Z,90.24
2023-05-14T23:11:13.542Z,90.88
2023-05-14T23:12:15.963Z,90.79
2023-05-14T23:21:49.175Z,91.20
2023-05-14T23:31:25.149Z,91.92
2023-05-14T23:40:58.095Z,92.12
2023-05-14T23:50:33.534Z,92.20
